createdAt,value
2017-01-21T08:21:20.917Z,977.57
2017-01-21T08:22:20.869Z,977.53
2017-01-21T08:23:20.823Z,977.53
2017-01-21T08:24:20.776Z,977.49
2017-01-21T08:25:20.730Z,977.52
2017-01-21T08:26:20.685Z,977.52
2017-01-21T08:27:20.637Z,977.54
2017-01-21T08:28:20.593Z,977.54
2017-01-21T08:29:20.547Z,977.52
2017-01-21T08:30:20.499Z,977.58
2017-01-21T08:31:20.453Z,977.57
2017-01-21T08:32:20.409Z,977.49
2017-01-21T08:33:20.361Z,977.54
2017-01-21T08:34:20.315Z,977.57
2017-01-21T08:35:20.272Z,977.51
2017-01-21T08:36:20.240Z,977.5
2017-01-21T08:37:20.180Z,977.5
2017-01-21T08:38:20.131Z,977.48
2017-01-21T08:39:20.088Z,977.55
2017-01-21T08:40:20.040Z,977.5
2017-01-21T08:41:19.993Z,977.56
2017-01-21T08:42:19.947Z,977.55
2017-01-21T08:43:19.902Z,977.56
2017-01-21T08:44:19.856Z,977.57
2017-01-21T08:45:19.810Z,977.59
2017-01-21T08:46:19.764Z,977.63
2017-01-21T08:47:19.716Z,977.6
2017-01-21T08:48:19.671Z,977.59
2017-01-21T08:49:19.625Z,977.62
2017-01-21T08:50:19.580Z,977.58
2017-01-21T08:51:19.535Z,977.6
2017-01-21T08:52:19.488Z,977.65
2017-01-21T08:53:19.449Z,977.64
2017-01-21T08:54:19.397Z,977.69
2017-01-21T08:55:19.351Z,977.68
2017-01-21T08:56:19.304Z,977.66
2017-01-21T08:57:19.260Z,977.69
2017-01-21T08:58:19.217Z,977.68
2017-01-21T08:59:19.169Z,977.61
2017-01-21T09:00:19.123Z,977.64
2017-01-21T09:01:19.078Z,977.62
2017-01-21T09:02:19.031Z,977.61
2017-01-21T09:03:18.987Z,977.65
2017-01-21T09:04:18.940Z,977.64
2017-01-21T09:05:18.896Z,977.65
2017-01-21T09:06:18.850Z,977.65
2017-01-21T09:07:18.802Z,977.64
2017-01-21T09:08:18.758Z,977.65
2017-01-21T09:09:18.711Z,977.65
2017-01-21T09:10:18.666Z,977.64
2017-01-21T09:11:18.620Z,977.63
2017-01-21T09:12:18.577Z,977.64
2017-01-21T09:13:18.530Z,977.64
2017-01-21T09:14:18.484Z,977.62
2017-01-21T09:15:18.437Z,977.63
2017-01-21T09:16:18.396Z,977.6
2017-01-21T09:17:18.350Z,977.62
2017-01-21T09:18:18.302Z,977.64
2017-01-21T09:19:18.255Z,977.64
2017-01-21T09:20:18.212Z,977.59
2017-01-21T09:21:18.164Z,977.69
2017-01-21T09:22:18.121Z,977.61
2017-01-21T09:23:18.075Z,977.66
2017-01-21T09:24:18.027Z,977.63
2017-01-21T09:25:17.983Z,977.69
2017-01-21T09:26:17.937Z,977.72
2017-01-21T09:27:17.893Z,977.74
2017-01-21T09:28:17.848Z,977.7
2017-01-21T09:29:17.801Z,977.67
2017-01-21T09:30:17.758Z,977.69
2017-01-21T09:31:17.710Z,977.71
2017-01-21T09:32:17.665Z,977.73
2017-01-21T09:33:17.618Z,977.76
2017-01-21T09:34:17.575Z,977.79
2017-01-21T09:35:17.529Z,977.76
2017-01-21T09:36:17.484Z,977.74
2017-01-21T09:37:17.438Z,977.77
2017-01-21T09:38:17.392Z,977.76
2017-01-21T09:39:17.345Z,977.79
2017-01-21T09:40:17.299Z,977.72
2017-01-21T09:41:17.254Z,977.73
2017-01-21T09:42:17.206Z,977.76
2017-01-21T09:43:17.164Z,977.8
2017-01-21T09:44:17.116Z,977.75
2017-01-21T09:45:17.071Z,977.76
2017-01-21T09:46:17.027Z,977.74
2017-01-21T09:47:16.980Z,977.77
2017-01-21T09:48:16.936Z,977.7
2017-01-21T09:49:16.890Z,977.73
2017-01-21T09:50:16.845Z,977.69
2017-01-21T09:51:16.800Z,977.68
2017-01-21T09:52:16.754Z,977.7
2017-01-21T09:53:16.711Z,977.7
2017-01-21T09:54:16.664Z,977.73
2017-01-21T09:55:16.617Z,977.69
2017-01-21T09:56:16.572Z,977.68
2017-01-21T09:57:16.528Z,977.67
2017-01-21T09:58:16.485Z,977.68
2017-01-21T09:59:16.444Z,977.68
2017-01-21T10:00:16.391Z,977.69
2017-01-21T10:01:16.346Z,977.61
2017-01-21T10:02:16.302Z,977.61
2017-01-21T10:03:16.255Z,977.59
2017-01-21T10:04:16.211Z,977.57
2017-01-21T10:05:16.175Z,977.52
2017-01-21T10:06:16.119Z,977.52
2017-01-21T10:07:16.075Z,977.53
2017-01-21T10:08:16.030Z,977.61
2017-01-21T10:09:15.985Z,977.53
2017-01-21T10:10:15.939Z,977.55
2017-01-21T10:11:15.894Z,977.53
2017-01-21T10:12:15.861Z,977.52
2017-01-21T10:13:15.800Z,977.52
2017-01-21T10:14:15.756Z,977.51
2017-01-21T10:15:15.718Z,977.52
2017-01-21T10:16:15.668Z,977.54
2017-01-21T10:17:15.631Z,977.52
2017-01-21T10:18:15.577Z,977.5
2017-01-21T10:19:15.532Z,977.52
2017-01-21T10:20:15.486Z,977.47
2017-01-21T10:21:15.441Z,977.44
2017-01-21T10:22:15.398Z,977.41
2017-01-21T10:23:15.351Z,977.39
2017-01-21T10:24:15.307Z,977.38
2017-01-21T10:25:15.261Z,977.37
2017-01-21T10:26:15.219Z,977.32
2017-01-21T10:27:15.172Z,977.34
2017-01-21T10:28:15.127Z,977.37
2017-01-21T10:29:15.083Z,977.37
2017-01-21T10:30:15.038Z,977.34
2017-01-21T10:31:14.993Z,977.32
2017-01-21T10:32:14.950Z,977.42
2017-01-21T10:33:14.904Z,977.38
2017-01-21T10:34:14.860Z,977.43
2017-01-21T10:35:14.826Z,977.39
2017-01-21T10:36:14.770Z,977.43
2017-01-21T10:37:14.725Z,977.39
2017-01-21T10:38:14.678Z,977.41
2017-01-21T10:39:14.634Z,977.41
2017-01-21T10:40:14.591Z,977.41
2017-01-21T10:41:14.547Z,977.39
2017-01-21T10:42:14.501Z,977.36
2017-01-21T10:43:14.457Z,977.39
2017-01-21T10:44:14.412Z,977.4
2017-01-21T10:45:14.367Z,977.39
2017-01-21T10:46:14.326Z,977.42
2017-01-21T10:47:14.278Z,977.37
2017-01-21T10:48:14.233Z,977.4
2017-01-21T10:49:14.189Z,977.34
2017-01-21T10:50:14.146Z,977.38
2017-01-21T10:51:14.100Z,977.34
2017-01-21T10:52:14.055Z,977.35
2017-01-21T10:53:14.015Z,977.38
2017-01-21T10:54:13.967Z,977.35
2017-01-21T10:55:13.922Z,977.35
2017-01-21T10:56:13.879Z,977.35
2017-01-21T10:57:13.837Z,977.34
2017-01-21T10:58:13.790Z,977.32
2017-01-21T10:59:13.747Z,977.31
2017-01-21T11:00:13.709Z,977.27
2017-01-21T11:01:13.656Z,977.27
2017-01-21T11:02:13.612Z,977.27
2017-01-21T11:03:13.568Z,977.23
2017-01-21T11:04:13.524Z,977.19
2017-01-21T11:05:13.481Z,977.15
2017-01-21T11:06:13.436Z,977.15
2017-01-21T11:07:13.399Z,977.13
2017-01-21T11:08:13.347Z,977.11
2017-01-21T11:09:13.304Z,977.12
2017-01-21T11:10:13.261Z,977.06
2017-01-21T11:11:13.218Z,977.06
2017-01-21T11:12:13.172Z,977.03
2017-01-21T11:13:13.129Z,977.02
2017-01-21T11:14:13.084Z,977.01
2017-01-21T11:15:13.064Z,977.06
2017-01-21T11:16:12.996Z,976.98
2017-01-21T11:17:12.952Z,976.97
2017-01-21T11:18:12.908Z,977.02
2017-01-21T11:19:12.867Z,977.01
2017-01-21T11:20:12.822Z,976.96
2017-01-21T11:21:12.777Z,976.97
2017-01-21T11:22:12.735Z,976.96
2017-01-21T11:23:12.694Z,976.95
2017-01-21T11:24:12.646Z,976.96
2017-01-21T11:25:12.602Z,976.95
2017-01-21T11:26:12.561Z,976.91
2017-01-21T11:27:13.041Z,976.97
2017-01-21T11:28:12.476Z,976.92
2017-01-21T11:29:12.429Z,976.91
2017-01-21T11:30:12.386Z,976.92
2017-01-21T11:31:12.347Z,976.89
2017-01-21T11:32:12.298Z,976.85
2017-01-21T11:33:12.255Z,976.89
2017-01-21T11:34:12.210Z,976.89
2017-01-21T11:35:12.167Z,976.83
2017-01-21T11:36:12.123Z,976.85
2017-01-21T11:37:12.080Z,976.87
2017-01-21T11:38:12.035Z,976.78
2017-01-21T11:39:11.992Z,976.84
2017-01-21T11:40:11.949Z,976.8
2017-01-21T11:41:11.905Z,976.8
2017-01-21T11:42:11.862Z,976.82
2017-01-21T11:43:11.817Z,976.83
2017-01-21T11:44:11.773Z,976.83
2017-01-21T11:45:11.731Z,976.82
2017-01-21T11:46:11.687Z,976.8
2017-01-21T11:47:11.643Z,976.82
2017-01-21T11:48:11.600Z,976.8
2017-01-21T11:49:11.557Z,976.81
2017-01-21T11:50:11.513Z,976.77
2017-01-21T11:51:11.469Z,976.78
2017-01-21T11:52:11.424Z,976.75
2017-01-21T11:53:11.381Z,976.75
2017-01-21T11:54:11.339Z,976.76
2017-01-21T11:55:11.297Z,976.78
2017-01-21T11:56:11.248Z,976.78
2017-01-21T11:57:11.205Z,976.74
2017-01-21T11:58:11.169Z,976.72
2017-01-21T11:59:11.119Z,976.73
2017-01-21T12:00:11.075Z,976.7
2017-01-21T12:01:11.033Z,976.68
2017-01-21T12:02:10.988Z,976.67
2017-01-21T12:03:10.943Z,976.65
2017-01-21T12:04:10.900Z,976.61
2017-01-21T12:05:10.857Z,976.62
2017-01-21T12:06:10.813Z,976.61
2017-01-21T12:07:10.769Z,976.62
2017-01-21T12:08:10.726Z,976.6
2017-01-21T12:09:10.681Z,976.61
2017-01-21T12:10:10.638Z,976.63
2017-01-21T12:11:10.594Z,976.63
2017-01-21T12:12:10.551Z,976.62
2017-01-21T12:13:10.508Z,976.63
2017-01-21T12:14:10.463Z,976.62
2017-01-21T12:15:10.422Z,976.63
2017-01-21T12:16:10.382Z,976.63
2017-01-21T12:17:10.332Z,976.57
2017-01-21T12:18:10.289Z,976.56
2017-01-21T12:19:10.246Z,976.52
2017-01-21T12:20:10.201Z,976.51
2017-01-21T12:21:10.158Z,976.53
2017-01-21T12:22:10.116Z,976.5
2017-01-21T12:23:10.073Z,976.57
2017-01-21T12:24:10.029Z,976.56
2017-01-21T12:25:09.984Z,976.54
2017-01-21T12:26:09.946Z,976.53
2017-01-21T12:27:09.899Z,976.57
2017-01-21T12:28:09.855Z,976.57
2017-01-21T12:29:09.812Z,976.51
2017-01-21T12:30:09.767Z,976.51
2017-01-21T12:31:09.724Z,976.49
2017-01-21T12:32:09.683Z,976.45
2017-01-21T12:33:09.638Z,976.44
